Observation data for Seagraves on 07/11/2018      Previous  Date       Current Mesonet Observations  Soil Data  Daily Summary Page  Observations in Plain Language
KSGV 110505Z 18004KT 23/17 A3015 RMK A01 T02300170  RH  072%=      5-min Rain = 0
KSGV 110510Z 18004KT 23/17 A3015 RMK A01 T02300170  RH  073%=      5-min Rain = 0
KSGV 110515Z 18004KT 23/17 A3015 RMK A01 T02310170  RH  072%=      5-min Rain = 0
KSGV 110520Z 18004KT 23/17 A3015 RMK A01 T02310170  RH  072%=      5-min Rain = 0
KSGV 110525Z 18004KT 23/17 A3015 RMK A01 T02310169  RH  072%=      5-min Rain = 0
KSGV 110530Z 18004KT 23/17 A3015 RMK A01 T02310169  RH  072%=      5-min Rain = 0
KSGV 110535Z 18005KT 23/17 A3015 RMK A01 T02320170  RH  072%=      5-min Rain = 0
KSGV 110540Z 18005KT 23/17 A3015 RMK A01 T02330170  RH  071%=      5-min Rain = 0
KSGV 110545Z 19005KT 23/17 A3015 RMK A01 T02330170  RH  071%=      5-min Rain = 0
KSGV 110550Z 19005KT 23/17 A3015 RMK A01 T02330171  RH  072%=      5-min Rain = 0
KSGV 110555Z 20004KT 23/17 A3016 RMK A01 T02330170  RH  072%=      5-min Rain = 0
KSGV 110600Z 20004KT 23/17 A3015 RMK A01 T02330170  RH  072%=      5-min Rain = 0
KSGV 110605Z 20004KT 23/17 A3016 RMK A01 T02330171  RH  072%=      5-min Rain = 0
KSGV 110610Z 21003KT 23/17 A3016 RMK A01 T02310171  RH  073%=      5-min Rain = 0
KSGV 110615Z 20002KT 23/17 A3016 RMK A01 T02310172  RH  073%=      5-min Rain = 0
KSGV 110620Z 20002KT 23/17 A3016 RMK A01 T02300172  RH  073%=      5-min Rain = 0
KSGV 110625Z 20002KT 23/17 A3016 RMK A01 T02290171  RH  074%=      5-min Rain = 0
KSGV 110630Z 19005KT 23/17 A3016 RMK A01 T02290173  RH  074%=      5-min Rain = 0
KSGV 110635Z 19006KT 23/17 A3016 RMK A01 T02320174  RH  074%=      5-min Rain = 0
KSGV 110640Z 18006KT 23/17 A3015 RMK A01 T02330174  RH  073%=      5-min Rain = 0
KSGV 110645Z 18007KT 24/17 A3015 RMK A01 T02360172  RH  071%=      5-min Rain = 0
KSGV 110650Z 18007KT 24/17 A3015 RMK A01 T02380168  RH  068%=      5-min Rain = 0
KSGV 110655Z 19007KT 24/17 A3015 RMK A01 T02390166  RH  067%=      5-min Rain = 0
KSGV 110700Z 19006KT 24/17 A3015 RMK A01 T02380167  RH  068%=      5-min Rain = 0
KSGV 110705Z 19006KT 24/17 A3015 RMK A01 T02360167  RH  068%=      5-min Rain = 0
KSGV 110710Z 19006KT 23/17 A3015 RMK A01 T02340168  RH  069%=      5-min Rain = 0
KSGV 110715Z 19006KT 23/17 A3015 RMK A01 T02320168  RH  071%=      5-min Rain = 0
KSGV 110720Z 19006KT 23/17 A3015 RMK A01 T02310166  RH  070%=      5-min Rain = 0
KSGV 110725Z 19007KT 23/16 A3015 RMK A01 T02320162  RH  068%=      5-min Rain = 0
KSGV 110730Z 19006KT 23/16 A3015 RMK A01 T02320159  RH  066%=      5-min Rain = 0
KSGV 110735Z 19006KT 23/16 A3015 RMK A01 T02300159  RH  067%=      5-min Rain = 0
KSGV 110740Z 18006KT 23/16 A3015 RMK A01 T02290158  RH  067%=      5-min Rain = 0
KSGV 110745Z 18006KT 23/16 A3015 RMK A01 T02290158  RH  068%=      5-min Rain = 0
KSGV 110750Z 19005KT 23/16 A3014 RMK A01 T02280158  RH  067%=      5-min Rain = 0
KSGV 110755Z 19005KT 23/16 A3014 RMK A01 T02280157  RH  067%=      5-min Rain = 0
KSGV 110800Z 19005KT 23/16 A3014 RMK A01 T02260156  RH  068%=      5-min Rain = 0
KSGV 110805Z 18005KT 22/16 A3014 RMK A01 T02240156  RH  068%=      5-min Rain = 0
KSGV 110810Z 18004KT 22/16 A3015 RMK A01 T02230155  RH  069%=      5-min Rain = 0
KSGV 110815Z 18004KT 22/15 A3015 RMK A01 T02220154  RH  069%=      5-min Rain = 0
KSGV 110820Z 18005KT 22/15 A3014 RMK A01 T02210154  RH  068%=      5-min Rain = 0
KSGV 110825Z 18005KT 22/15 A3014 RMK A01 T02220152  RH  067%=      5-min Rain = 0
KSGV 110830Z 18005KT 22/15 A3015 RMK A01 T02230150  RH  066%=      5-min Rain = 0
KSGV 110835Z 18005KT 22/15 A3014 RMK A01 T02240150  RH  066%=      5-min Rain = 0
KSGV 110840Z 17005KT 22/15 A3014 RMK A01 T02240149  RH  065%=      5-min Rain = 0
KSGV 110845Z 17005KT 23/15 A3014 RMK A01 T02250148  RH  065%=      5-min Rain = 0
KSGV 110850Z 18005KT 22/15 A3014 RMK A01 T02240148  RH  065%=      5-min Rain = 0
KSGV 110855Z 18005KT 22/15 A3014 RMK A01 T02220148  RH  066%=      5-min Rain = 0
KSGV 110900Z 18005KT 22/15 A3014 RMK A01 T02210147  RH  066%=      5-min Rain = 0
KSGV 110905Z 19005KT 22/15 A3013 RMK A01 T02190147  RH  066%=      5-min Rain = 0
KSGV 110910Z 18004KT 22/15 A3013 RMK A01 T02180146  RH  067%=      5-min Rain = 0
KSGV 110915Z 17004KT 22/15 A3013 RMK A01 T02170145  RH  067%=      5-min Rain = 0
KSGV 110920Z 15004KT 22/14 A3013 RMK A01 T02170144  RH  066%=      5-min Rain = 0
KSGV 110925Z 14004KT 22/14 A3013 RMK A01 T02180144  RH  066%=      5-min Rain = 0
KSGV 110930Z 13004KT 22/14 A3013 RMK A01 T02180144  RH  066%=      5-min Rain = 0
KSGV 110935Z 14004KT 22/14 A3013 RMK A01 T02170144  RH  066%=      5-min Rain = 0
KSGV 110940Z 15003KT 22/14 A3013 RMK A01 T02170143  RH  066%=      5-min Rain = 0
KSGV 110945Z 15003KT 22/14 A3013 RMK A01 T02170143  RH  065%=      5-min Rain = 0
KSGV 110950Z 16003KT 22/14 A3013 RMK A01 T02170141  RH  065%=      5-min Rain = 0
KSGV 110955Z 15003KT 22/14 A3013 RMK A01 T02170140  RH  064%=      5-min Rain = 0
KSGV 111000Z 15003KT 22/14 A3013 RMK A01 T02180140  RH  064%=      5-min Rain = 0
KSGV 111005Z 15003KT 22/14 A3013 RMK A01 T02170139  RH  064%=      5-min Rain = 0
KSGV 111010Z 15002KT 22/14 A3013 RMK A01 T02160141  RH  065%=      5-min Rain = 0
KSGV 111015Z 14003KT 22/14 A3013 RMK A01 T02150143  RH  066%=      5-min Rain = 0
KSGV 111020Z 13002KT 21/14 A3013 RMK A01 T02140144  RH  067%=      5-min Rain = 0
KSGV 111025Z 12002KT 21/14 A3013 RMK A01 T02140143  RH  067%=      5-min Rain = 0
KSGV 111030Z 12003KT 22/14 A3013 RMK A01 T02150142  RH  066%=      5-min Rain = 0
KSGV 111035Z 12003KT 22/14 A3013 RMK A01 T02150142  RH  066%=      5-min Rain = 0
KSGV 111040Z 12003KT 22/14 A3013 RMK A01 T02150141  RH  066%=      5-min Rain = 0
KSGV 111045Z 11003KT 21/14 A3013 RMK A01 T02140142  RH  066%=      5-min Rain = 0
KSGV 111050Z 12003KT 21/14 A3014 RMK A01 T02140138  RH  064%=      5-min Rain = 0
KSGV 111055Z 09002KT 21/14 A3014 RMK A01 T02130139  RH  065%=      5-min Rain = 0
KSGV 111100Z 08003KT 21/14 A3014 RMK A01 T02110142  RH  067%=      5-min Rain = 0
KSGV 111105Z 08003KT 21/14 A3014 RMK A01 T02100143  RH  068%=      5-min Rain = 0
KSGV 111110Z 08003KT 21/14 A3014 RMK A01 T02090144  RH  069%=      5-min Rain = 0
KSGV 111115Z 09003KT 21/14 A3014 RMK A01 T02080143  RH  069%=      5-min Rain = 0
KSGV 111120Z 09004KT 21/14 A3014 RMK A01 T02070142  RH  069%=      5-min Rain = 0
KSGV 111125Z 09003KT 21/14 A3014 RMK A01 T02060141  RH  069%=      5-min Rain = 0
KSGV 111130Z 10003KT 21/14 A3014 RMK A01 T02060141  RH  069%=      5-min Rain = 0
KSGV 111135Z 10003KT 21/14 A3015 RMK A01 T02060140  RH  069%=      5-min Rain = 0
KSGV 111140Z 10003KT 21/14 A3015 RMK A01 T02050139  RH  069%=      5-min Rain = 0
KSGV 111145Z 10003KT 20/14 A3015 RMK A01 T02030139  RH  069%=      5-min Rain = 0
KSGV 111150Z 11003KT 20/14 A3015 RMK A01 T02020139  RH  070%=      5-min Rain = 0
KSGV 111155Z 11003KT 20/14 A3015 RMK A01 T02020138  RH  070%=      5-min Rain = 0
KSGV 111200Z 11004KT 20/14 A3015 RMK A01 T02020138  RH  070%=      5-min Rain = 0
KSGV 111205Z 12004KT 20/14 A3015 RMK A01 T02020138  RH  070%=      5-min Rain = 0
KSGV 111210Z 11004KT 20/14 A3015 RMK A01 T02010138  RH  070%=      5-min Rain = 0
KSGV 111215Z 11004KT 20/14 A3016 RMK A01 T02000139  RH  071%=      5-min Rain = 0
KSGV 111220Z 10003KT 20/14 A3016 RMK A01 T02000139  RH  071%=      5-min Rain = 0
KSGV 111225Z 11004KT 20/14 A3016 RMK A01 T02000140  RH  071%=      5-min Rain = 0
KSGV 111230Z 12004KT 20/14 A3016 RMK A01 T02000140  RH  071%=      5-min Rain = 0
KSGV 111235Z 12004KT 20/14 A3016 RMK A01 T02000141  RH  072%=      5-min Rain = 0
KSGV 111240Z 11004KT 20/14 A3016 RMK A01 T02000142  RH  072%=      5-min Rain = 0
KSGV 111245Z 11004KT 20/14 A3016 RMK A01 T02010143  RH  072%=      5-min Rain = 0
KSGV 111250Z 12004KT 21/14 A3016 RMK A01 T02050144  RH  071%=      5-min Rain = 0
KSGV 111255Z 12005KT 21/15 A3016 RMK A01 T02090145  RH  070%=      5-min Rain = 0
KSGV 111300Z 12005KT 21/15 A3016 RMK A01 T02110146  RH  069%=      5-min Rain = 0
KSGV 111305Z 12005KT 21/15 A3016 RMK A01 T02130147  RH  069%=      5-min Rain = 0
KSGV 111310Z 13005KT 22/15 A3016 RMK A01 T02160148  RH  068%=      5-min Rain = 0
KSGV 111315Z 13005KT 22/15 A3016 RMK A01 T02190149  RH  067%=      5-min Rain = 0
KSGV 111320Z 14006KT 22/15 A3016 RMK A01 T02210149  RH  066%=      5-min Rain = 0
KSGV 111325Z 14007G12KT 22/15 A3016 RMK A01 T02240149  RH  066%=      5-min Rain = 0
KSGV 111330Z 15008KT 23/15 A3016 RMK A01 T02260150  RH  065%=      5-min Rain = 0
KSGV 111335Z 16009KT 23/15 A3016 RMK A01 T02290150  RH  064%=      5-min Rain = 0
KSGV 111340Z 16010KT 23/15 A3016 RMK A01 T02310151  RH  064%=      5-min Rain = 0
KSGV 111345Z 16010KT 23/15 A3016 RMK A01 T02330152  RH  063%=      5-min Rain = 0
KSGV 111350Z 17011KT 24/15 A3016 RMK A01 T02350153  RH  063%=      5-min Rain = 0
KSGV 111355Z 17011KT 24/15 A3016 RMK A01 T02380154  RH  062%=      5-min Rain = 0
KSGV 111400Z 16013KT 24/15 A3016 RMK A01 T02400154  RH  061%=      5-min Rain = 0
KSGV 111405Z 17011KT 24/16 A3016 RMK A01 T02430156  RH  061%=      5-min Rain = 0
KSGV 111410Z 17012KT 25/16 A3016 RMK A01 T02460157  RH  060%=      5-min Rain = 0
KSGV 111415Z 18014KT 25/16 A3016 RMK A01 T02460156  RH  060%=      5-min Rain = 0
KSGV 111420Z 18013G18KT 25/16 A3016 RMK A01 T02480157  RH  060%=      5-min Rain = 0
KSGV 111425Z 17013KT 25/16 A3016 RMK A01 T02500158  RH  059%=      5-min Rain = 0
KSGV 111430Z 18013KT 25/16 A3016 RMK A01 T02500158  RH  059%=      5-min Rain = 0
KSGV 111435Z 18012KT 25/16 A3016 RMK A01 T02510158  RH  059%=      5-min Rain = 0
KSGV 111440Z 18012KT 25/16 A3016 RMK A01 T02540159  RH  058%=      5-min Rain = 0
KSGV 111445Z 18012KT 26/16 A3016 RMK A01 T02550159  RH  058%=      5-min Rain = 0
KSGV 111450Z 18011KT 26/16 A3016 RMK A01 T02580159  RH  057%=      5-min Rain = 0
KSGV 111455Z 18011KT 26/16 A3016 RMK A01 T02600158  RH  056%=      5-min Rain = 0
KSGV 111500Z 18012KT 26/16 A3016 RMK A01 T02640157  RH  054%=      5-min Rain = 0
KSGV 111505Z 18011KT 26/16 A3016 RMK A01 T02640155  RH  053%=      5-min Rain = 0
KSGV 111510Z 19009KT 27/16 A3016 RMK A01 T02670157  RH  053%=      5-min Rain = 0
KSGV 111515Z 18011KT 27/15 A3016 RMK A01 T02700154  RH  052%=      5-min Rain = 0
KSGV 111520Z 19011KT 27/15 A3017 RMK A01 T02730152  RH  050%=      5-min Rain = 0
KSGV 111525Z 18012KT 27/15 A3017 RMK A01 T02700151  RH  050%=      5-min Rain = 0
KSGV 111530Z 19011KT 27/15 A3016 RMK A01 T02660151  RH  051%=      5-min Rain = 0
KSGV 111535Z 18011KT 27/15 A3016 RMK A01 T02700150  RH  050%=      5-min Rain = 0
KSGV 111540Z 19011KT 27/15 A3016 RMK A01 T02740151  RH  049%=      5-min Rain = 0
KSGV 111545Z 19011KT 28/15 A3016 RMK A01 T02760152  RH  049%=      5-min Rain = 0
KSGV 111550Z 18012KT 27/15 A3016 RMK A01 T02730153  RH  050%=      5-min Rain = 0
KSGV 111555Z 18011KT 28/15 A3016 RMK A01 T02760154  RH  049%=      5-min Rain = 0
KSGV 111600Z 18011KT 28/15 A3016 RMK A01 T02780154  RH  049%=      5-min Rain = 0
KSGV 111605Z 18011KT 28/16 A3016 RMK A01 T02790155  RH  049%=      5-min Rain = 0
KSGV 111610Z 18010KT 28/16 A3016 RMK A01 T02780156  RH  050%=      5-min Rain = 0
KSGV 111615Z 17010KT 28/16 A3016 RMK A01 T02810156  RH  049%=      5-min Rain = 0
KSGV 111620Z 18010G15KT 28/16 A3016 RMK A01 T02790156  RH  049%=      5-min Rain = 0
KSGV 111625Z 18011KT 28/16 A3016 RMK A01 T02830158  RH  049%=      5-min Rain = 0
KSGV 111630Z 17012KT 29/16 A3016 RMK A01 T02880156  RH  047%=      5-min Rain = 0
KSGV 111635Z 20010G15KT 29/16 A3016 RMK A01 T02920156  RH  046%=      5-min Rain = 0
KSGV 111640Z 19012G17KT 29/15 A3016 RMK A01 T02930154  RH  045%=      5-min Rain = 0
KSGV 111645Z 19012KT 29/15 A3016 RMK A01 T02920154  RH  045%=      5-min Rain = 0
KSGV 111650Z 18010G16KT 30/16 A3016 RMK A01 T02960158  RH  045%=      5-min Rain = 0
KSGV 111655Z 17011KT 30/16 A3016 RMK A01 T02950155  RH  045%=      5-min Rain = 0
KSGV 111700Z 19009KT 30/16 A3015 RMK A01 T02980157  RH  044%=      5-min Rain = 0
KSGV 111705Z 18011G17KT 30/16 A3015 RMK A01 T02980155  RH  044%=      5-min Rain = 0
KSGV 111710Z 18010G15KT 30/15 A3015 RMK A01 T02980154  RH  044%=      5-min Rain = 0
KSGV 111715Z 17012G17KT 31/16 A3015 RMK A01 T03060155  RH  042%=      5-min Rain = 0
KSGV 111720Z 18012G17KT 30/15 A3015 RMK A01 T03040152  RH  042%=      5-min Rain = 0
KSGV 111725Z 18011G17KT 30/15 A3015 RMK A01 T02980154  RH  043%=      5-min Rain = 0
KSGV 111730Z 17010G15KT 30/15 A3015 RMK A01 T02990153  RH  043%=      5-min Rain = 0
KSGV 111735Z 18013G19KT 30/16 A3015 RMK A01 T03040156  RH  043%=      5-min Rain = 0
KSGV 111740Z 17010KT 31/16 A3014 RMK A01 T03070157  RH  042%=      5-min Rain = 0
KSGV 111745Z 18012KT 31/16 A3014 RMK A01 T03100155  RH  041%=      5-min Rain = 0
KSGV 111750Z 19012G17KT 31/15 A3014 RMK A01 T03100154  RH  041%=      5-min Rain = 0
KSGV 111755Z 19010G15KT 31/16 A3014 RMK A01 T03120155  RH  041%=      5-min Rain = 0
KSGV 111800Z 18011G18KT 32/16 A3013 RMK A01 T03180157  RH  040%=      5-min Rain = 0
KSGV 111805Z 15012G17KT 32/15 A3013 RMK A01 T03150154  RH  040%=      5-min Rain = 0
KSGV 111810Z 17009KT 31/15 A3013 RMK A01 T03070154  RH  042%=      5-min Rain = 0
KSGV 111815Z 17012G17KT 31/15 A3013 RMK A01 T03140154  RH  040%=      5-min Rain = 0
KSGV 111820Z 17010KT 31/15 A3013 RMK A01 T03130154  RH  040%=      5-min Rain = 0
KSGV 111825Z 17012G20KT 32/16 A3012 RMK A01 T03150156  RH  040%=      5-min Rain = 0
KSGV 111830Z 17012G19KT 32/15 A3012 RMK A01 T03180153  RH  039%=      5-min Rain = 0
KSGV 111835Z 16012G17KT 32/15 A3012 RMK A01 T03150153  RH  039%=      5-min Rain = 0
KSGV 111840Z 17014G21KT 31/15 A3012 RMK A01 T03090147  RH  039%=      5-min Rain = 0
KSGV 111845Z 16012G17KT 31/15 A3012 RMK A01 T03070146  RH  039%=      5-min Rain = 0
KSGV 111850Z 15011G18KT 31/15 A3011 RMK A01 T03110148  RH  039%=      5-min Rain = 0
KSGV 111855Z 17013G20KT 32/15 A3011 RMK A01 T03200151  RH  038%=      5-min Rain = 0
KSGV 111900Z 18013G21KT 32/15 A3011 RMK A01 T03240149  RH  036%=      5-min Rain = 0
KSGV 111905Z 17012G18KT 32/15 A3011 RMK A01 T03230149  RH  037%=      5-min Rain = 0
KSGV 111910Z 17014G19KT 33/15 A3011 RMK A01 T03280148  RH  035%=      5-min Rain = 0
KSGV 111915Z 16013G18KT 33/15 A3011 RMK A01 T03280149  RH  036%=      5-min Rain = 0
KSGV 111920Z 16013KT 32/15 A301 RMK A01 T03210149  RH  037%=      5-min Rain = 0
KSGV 111925Z 17014G20KT 33/15 A301 RMK A01 T03300149  RH  035%=      5-min Rain = 0
KSGV 111930Z 16012G19KT 33/15 A301 RMK A01 T03280149  RH  036%=      5-min Rain = 0
KSGV 111935Z 16013G19KT 33/15 A3009 RMK A01 T03270149  RH  036%=      5-min Rain = 0
KSGV 111940Z 18014G21KT 33/15 A3009 RMK A01 T03310150  RH  035%=      5-min Rain = 0
KSGV 111945Z 17012KT 33/15 A3009 RMK A01 T03270148  RH  035%=      5-min Rain = 0
KSGV 111950Z 17012G19KT 33/14 A3009 RMK A01 T03300144  RH  034%=      5-min Rain = 0
KSGV 111955Z 17014KT 33/15 A3009 RMK A01 T03310146  RH  034%=      5-min Rain = 0
KSGV 112000Z 17014G21KT 34/14 A3008 RMK A01 T03390144  RH  032%=      5-min Rain = 0
KSGV 112005Z 18012G18KT 33/14 A3008 RMK A01 T03320143  RH  033%=      5-min Rain = 0
KSGV 112010Z 18015G21KT 33/14 A3008 RMK A01 T03340143  RH  033%=      5-min Rain = 0
KSGV 112015Z 18013KT 33/14 A3008 RMK A01 T03340141  RH  033%=      5-min Rain = 0
KSGV 112020Z 17013G18KT 34/14 A3008 RMK A01 T03350143  RH  033%=      5-min Rain = 0
KSGV 112025Z 17014G22KT 34/14 A3008 RMK A01 T03380142  RH  032%=      5-min Rain = 0
KSGV 112030Z 17011KT 33/14 A3007 RMK A01 T03300142  RH  034%=      5-min Rain = 0
KSGV 112035Z 18012G22KT 34/14 A3007 RMK A01 T03360144  RH  033%=      5-min Rain = 0
KSGV 112040Z 20013G19KT 34/14 A3007 RMK A01 T03370141  RH  032%=      5-min Rain = 0
KSGV 112045Z 17011G16KT 34/14 A3006 RMK A01 T03390137  RH  031%=      5-min Rain = 0
KSGV 112050Z 18012G23KT 33/14 A3006 RMK A01 T03330138  RH  032%=      5-min Rain = 0
KSGV 112055Z 18012G18KT 34/14 A3006 RMK A01 T03370140  RH  032%=      5-min Rain = 0
KSGV 112100Z 18014KT 34/14 A3005 RMK A01 T03410138  RH  031%=      5-min Rain = 0
KSGV 112105Z 16012G18KT 34/14 A3005 RMK A01 T03400137  RH  031%=      5-min Rain = 0
KSGV 112110Z 17014G23KT 33/14 A3005 RMK A01 T03340136  RH  032%=      5-min Rain = 0
KSGV 112115Z 18014KT 33/14 A3005 RMK A01 T03260136  RH  033%=      5-min Rain = 0
KSGV 112120Z 17010G17KT 32/13 A3005 RMK A01 T03230134  RH  033%=      5-min Rain = 0
KSGV 112125Z 17012G18KT 32/14 A3005 RMK A01 T03240135  RH  033%=      5-min Rain = 0
KSGV 112130Z 19012G18KT 33/14 A3005 RMK A01 T03290136  RH  032%=      5-min Rain = 0
KSGV 112135Z 18010G17KT 33/14 A3005 RMK A01 T03310136  RH  032%=      5-min Rain = 0
KSGV 112140Z 20012G17KT 33/13 A3004 RMK A01 T03290134  RH  032%=      5-min Rain = 0
KSGV 112145Z 19014G20KT 33/13 A3004 RMK A01 T03280132  RH  032%=      5-min Rain = 0
KSGV 112150Z 18011KT 33/13 A3004 RMK A01 T03250131  RH  032%=      5-min Rain = 0
KSGV 112155Z 18010KT 33/13 A3004 RMK A01 T03300132  RH  031%=      5-min Rain = 0
KSGV 112200Z 19012G18KT 34/14 A3004 RMK A01 T03380136  RH  031%=      5-min Rain = 0
KSGV 112205Z 17013G20KT 34/14 A3004 RMK A01 T03410136  RH  030%=      5-min Rain = 0
KSGV 112210Z 16009KT 34/13 A3004 RMK A01 T03380134  RH  030%=      5-min Rain = 0
KSGV 112215Z 18012G18KT 34/14 A3003 RMK A01 T03420136  RH  030%=      5-min Rain = 0
KSGV 112220Z 19014G21KT 34/13 A3003 RMK A01 T03440133  RH  029%=      5-min Rain = 0
KSGV 112225Z 18013G20KT 34/14 A3003 RMK A01 T03400136  RH  030%=      5-min Rain = 0
KSGV 112230Z 19012G17KT 33/13 A3003 RMK A01 T03340133  RH  031%=      5-min Rain = 0
KSGV 112235Z 18013G19KT 34/13 A3003 RMK A01 T03370134  RH  030%=      5-min Rain = 0
KSGV 112240Z 17011KT 34/13 A3003 RMK A01 T03410132  RH  030%=      5-min Rain = 0
KSGV 112245Z 19010G16KT 34/13 A3003 RMK A01 T03350133  RH  031%=      5-min Rain = 0
KSGV 112250Z 18012KT 34/13 A3003 RMK A01 T03390129  RH  029%=      5-min Rain = 0
KSGV 112255Z 18011G17KT 34/13 A3003 RMK A01 T03360133  RH  031%=      5-min Rain = 0
KSGV 112300Z 19012KT 34/13 A3003 RMK A01 T03380130  RH  030%=      5-min Rain = 0
KSGV 112305Z 19012G18KT 34/13 A3003 RMK A01 T03370130  RH  030%=      5-min Rain = 0
KSGV 112310Z 19010KT 33/13 A3003 RMK A01 T03340132  RH  031%=      5-min Rain = 0
KSGV 112315Z 19011KT 33/13 A3003 RMK A01 T03320133  RH  031%=      5-min Rain = 0
KSGV 112320Z 18012KT 33/13 A3003 RMK A01 T03320131  RH  031%=      5-min Rain = 0
KSGV 112325Z 18012KT 34/13 A3002 RMK A01 T03360133  RH  030%=      5-min Rain = 0
KSGV 112330Z 18012KT 34/13 A3002 RMK A01 T03350130  RH  030%=      5-min Rain = 0
KSGV 112335Z 19010G15KT 34/13 A3002 RMK A01 T03370129  RH  030%=      5-min Rain = 0
KSGV 112340Z 19012KT 34/13 A3002 RMK A01 T03350130  RH  030%=      5-min Rain = 0
KSGV 112345Z 18010G17KT 33/13 A3002 RMK A01 T03320130  RH  031%=      5-min Rain = 0
KSGV 112350Z 18013KT 33/13 A3002 RMK A01 T03300132  RH  031%=      5-min Rain = 0
KSGV 112355Z 18011G16KT 33/13 A3002 RMK A01 T03280131  RH  031%=      5-min Rain = 0
KSGV 120000Z 18011KT 33/13 A3002 RMK A01 T03250132  RH  032%=      5-min Rain = 0
KSGV 120005Z 19011KT 32/13 A3002 RMK A01 T03220133  RH  033%=      5-min Rain = 0
KSGV 120010Z 19010G16KT 32/13 A3002 RMK A01 T03200133  RH  033%=      5-min Rain = 0
KSGV 120015Z 19012KT 32/13 A3002 RMK A01 T03170130  RH  033%=      5-min Rain = 0
KSGV 120020Z 19012KT 32/13 A3002 RMK A01 T03160131  RH  034%=      5-min Rain = 0
KSGV 120025Z 18012KT 32/13 A3003 RMK A01 T03160131  RH  034%=      5-min Rain = 0
KSGV 120030Z 18010KT 32/13 A3003 RMK A01 T03150130  RH  034%=      5-min Rain = 0
KSGV 120035Z 19011KT 31/13 A3003 RMK A01 T03140133  RH  034%=      5-min Rain = 0
KSGV 120040Z 19010KT 31/13 A3003 RMK A01 T03140133  RH  034%=      5-min Rain = 0
KSGV 120045Z 19011KT 31/13 A3003 RMK A01 T03140132  RH  034%=      5-min Rain = 0
KSGV 120050Z 19009KT 31/13 A3003 RMK A01 T03130131  RH  034%=      5-min Rain = 0
KSGV 120055Z 18010KT 31/13 A3003 RMK A01 T03130133  RH  035%=      5-min Rain = 0
KSGV 120100Z 18011KT 31/13 A3003 RMK A01 T03130133  RH  035%=      5-min Rain = 0
KSGV 120105Z 18010KT 31/13 A3003 RMK A01 T03120133  RH  035%=      5-min Rain = 0
KSGV 120110Z 18009KT 31/13 A3004 RMK A01 T03110134  RH  035%=      5-min Rain = 0
KSGV 120115Z 18008KT 31/13 A3003 RMK A01 T03100134  RH  036%=      5-min Rain = 0
KSGV 120120Z 18008KT 31/14 A3004 RMK A01 T03090135  RH  036%=      5-min Rain = 0
KSGV 120125Z 18009KT 31/14 A3004 RMK A01 T03080135  RH  036%=      5-min Rain = 0
KSGV 120130Z 18008KT 31/14 A3004 RMK A01 T03070136  RH  037%=      5-min Rain = 0
KSGV 120135Z 18008KT 31/14 A3004 RMK A01 T03060136  RH  037%=      5-min Rain = 0
KSGV 120140Z 17007KT 31/14 A3004 RMK A01 T03060137  RH  037%=      5-min Rain = 0
KSGV 120145Z 17007KT 31/14 A3004 RMK A01 T03050138  RH  038%=      5-min Rain = 0
KSGV 120150Z 17007KT 30/14 A3004 RMK A01 T03030138  RH  038%=      5-min Rain = 0
KSGV 120155Z 17007KT 30/14 A3004 RMK A01 T03020139  RH  038%=      5-min Rain = 0
KSGV 120200Z 17008KT 30/14 A3004 RMK A01 T03000139  RH  039%=      5-min Rain = 0
KSGV 120205Z 17007KT 30/14 A3005 RMK A01 T02980139  RH  039%=      5-min Rain = 0
KSGV 120210Z 17007KT 30/14 A3005 RMK A01 T02960140  RH  040%=      5-min Rain = 0
KSGV 120215Z 17007KT 30/14 A3005 RMK A01 T02950139  RH  040%=      5-min Rain = 0
KSGV 120220Z 17007KT 29/14 A3005 RMK A01 T02940139  RH  040%=      5-min Rain = 0
KSGV 120225Z 17007KT 29/14 A3005 RMK A01 T02920139  RH  041%=      5-min Rain = 0
KSGV 120230Z 17007KT 29/14 A3005 RMK A01 T02910139  RH  041%=      5-min Rain = 0
KSGV 120235Z 17006KT 29/14 A3005 RMK A01 T02890139  RH  041%=      5-min Rain = 0
KSGV 120240Z 17006KT 29/14 A3005 RMK A01 T02870139  RH  042%=      5-min Rain = 0
KSGV 120245Z 17007KT 29/14 A3006 RMK A01 T02860139  RH  042%=      5-min Rain = 0
KSGV 120250Z 17007KT 29/14 A3006 RMK A01 T02850139  RH  043%=      5-min Rain = 0
KSGV 120255Z 16006KT 28/14 A3006 RMK A01 T02830140  RH  043%=      5-min Rain = 0
KSGV 120300Z 17007KT 28/14 A3006 RMK A01 T02810141  RH  044%=      5-min Rain = 0
KSGV 120305Z 17007KT 28/14 A3006 RMK A01 T02800142  RH  045%=      5-min Rain = 0
KSGV 120310Z 16007KT 28/14 A3007 RMK A01 T02790142  RH  045%=      5-min Rain = 0
KSGV 120315Z 16007KT 28/14 A3007 RMK A01 T02780142  RH  045%=      5-min Rain = 0
KSGV 120320Z 16007KT 28/14 A3007 RMK A01 T02780142  RH  045%=      5-min Rain = 0
KSGV 120325Z 16006KT 28/14 A3007 RMK A01 T02750142  RH  046%=      5-min Rain = 0
KSGV 120330Z 15005KT 27/14 A3008 RMK A01 T02730142  RH  047%=      5-min Rain = 0
KSGV 120335Z 14005KT 27/14 A3008 RMK A01 T02710142  RH  047%=      5-min Rain = 0
KSGV 120340Z 14004KT 27/14 A3008 RMK A01 T02680143  RH  048%=      5-min Rain = 0
KSGV 120345Z 14004KT 27/14 A3009 RMK A01 T02650142  RH  049%=      5-min Rain = 0
KSGV 120350Z 14005KT 26/14 A3009 RMK A01 T02640143  RH  050%=      5-min Rain = 0
KSGV 120355Z 14005KT 26/15 A3009 RMK A01 T02630145  RH  050%=      5-min Rain = 0
KSGV 120400Z 14005KT 26/15 A3009 RMK A01 T02630146  RH  051%=      5-min Rain = 0
KSGV 120405Z 14006KT 26/15 A3009 RMK A01 T02630146  RH  051%=      5-min Rain = 0
KSGV 120410Z 15006KT 26/15 A3009 RMK A01 T02630146  RH  051%=      5-min Rain = 0
KSGV 120415Z 15006KT 26/15 A3009 RMK A01 T02640146  RH  050%=      5-min Rain = 0
KSGV 120420Z 15006KT 26/15 A3009 RMK A01 T02640145  RH  050%=      5-min Rain = 0
KSGV 120425Z 16007KT 26/14 A3009 RMK A01 T02640143  RH  050%=      5-min Rain = 0
KSGV 120430Z 16008KT 26/14 A3009 RMK A01 T02640141  RH  049%=      5-min Rain = 0
KSGV 120435Z 16007KT 26/14 A301 RMK A01 T02640140  RH  048%=      5-min Rain = 0
KSGV 120440Z 16007KT 26/14 A301 RMK A01 T02620140  RH  049%=      5-min Rain = 0
KSGV 120445Z 16007KT 26/14 A301 RMK A01 T02610140  RH  049%=      5-min Rain = 0
KSGV 120450Z 17007KT 26/14 A301 RMK A01 T02610140  RH  049%=      5-min Rain = 0
KSGV 120455Z 16007KT 26/14 A301 RMK A01 T02600140  RH  049%=      5-min Rain = 0
KSGV 120500Z 17007KT 26/14 A301 RMK A01 T02600139  RH  049%=      5-min Rain = 0

Page generated in 0.1045 seconds.